Doland, South Dakota
Current Conditions -  °F | °C
As of 8:55 PM on Saturday 25 Oct 2014 (Local Time) from KHON Reporting Station
Clear Clear  
Wind Chill: 50°   Ceiling: Unl
Heat Index: 50°   Visibility: 10mi
Dew Point: 30°   Wind: 5mph
Humidity: 46%   Direction: 110°ESE
Pressure: 30.04"   Gusts: NA
Location:  44.9°N, 98.1°W
Report Text: KHON 260155Z AUTO 11004KT 10SM CLR 10/M01 A3004 RMK AO2 SLP179 T01001011
Loading
Personal Weather Stations






























Interactive Weather Map
Tropical Storm Tracking
New forecast layout! Learn more

10-Day Weather Forecast

Advertisements
Track Severe Weather on mobile